Time;durP1;ratioP1;P1;durP2;ratioP2;P2;SDS_P1;SDS_P2;PMS_P1;PMS_P2;Temp;Humidity;BMP_temperature;BMP_pressure;BME280_temperature;BME280_humidity;BME280_pressure;Samples;Min_cycle;Max_cycle;Signal;HPM_P1;HPM_P2
2022/09/13 00:00:04;;;;;;;;;;;;;;;;;;4921874;28;19941;-61
2022/09/13 00:02:29;;;;;;;;;;;;;;;;;;4921161;28;20429;-60
2022/09/13 00:04:57;;;;;;;;;;;;;;;;;;4923959;28;19985;-59
2022/09/13 00:07:25;;;;;;;;;;;;;;;;;;4922143;28;19930;-61
2022/09/13 00:09:51;;;;;;;;;;;;;;;;;;4924073;28;20017;-60
2022/09/13 00:12:16;;;;;;;;;;;;;;;;;;4925678;28;19927;-61
2022/09/13 00:14:41;;;;;;;;;;;;;;;;;;4926204;28;20000;-61
2022/09/13 00:17:06;;;;;;;;;;;;;;;;;;4922714;28;19922;-60
2022/09/13 00:19:37;;;;;;;;;;;;;;;;;;4908573;28;19918;-61
2022/09/13 00:22:02;;;;;;;;;;;;;;;;;;4925725;28;20288;-61
2022/09/13 00:24:32;;;;;;;;;;;;;;;;;;4922052;28;20013;-62
2022/09/13 00:26:58;;;;;;;;;;;;;;;;;;4920707;28;19922;-60
2022/09/13 00:29:23;;;;;;;;;;;;;;;;;;4906673;29;19922;-61
2022/09/13 00:31:48;;;;;;;;;;;;;;;;;;4935860;28;19933;-60
2022/09/13 00:34:14;;;;;;;;;;;;;;;;;;4909665;29;19918;-60
2022/09/13 00:36:42;;;;;;;;;;;;;;;;;;4924998;28;20751;-61
2022/09/13 00:39:07;;;;;;;;;;;;;;;;;;4908632;28;19930;-62
2022/09/13 00:41:35;;;;;;;;;;;;;;;;;;4911453;29;20366;-62
2022/09/13 00:44:00;;;;;;;;;;;;;;;;;;4923967;28;19949;-63
2022/09/13 00:46:26;;;;;;;;;;;;;;;;;;4909970;28;20341;-62
2022/09/13 00:48:51;;;;;;;;;;;;;;;;;;4917984;28;20652;-61
2022/09/13 00:51:16;;;;;;;;;;;;;;;;;;4907183;28;20382;-62
2022/09/13 00:53:44;;;;;;;;;;;;;;;;;;4923068;28;19923;-59
2022/09/13 00:56:09;;;;;;;;;;;;;;;;;;4938474;28;19946;-61
2022/09/13 00:58:37;;;;;;;;;;;;;;;;;;4921516;28;19923;-62
2022/09/13 01:01:05;;;;;;;;;;;;;;;;;;4922739;28;19977;-60
2022/09/13 01:03:30;;;;;;;;;;;;;;;;;;4921822;28;20623;-59
2022/09/13 01:05:56;;;;;;;;;;;;;;;;;;4906053;28;19922;-60
2022/09/13 01:08:21;;;;;;;;;;;;;;;;;;4922717;28;20060;-62
2022/09/13 01:10:52;;;;;;;;;;;;;;;;;;4923951;28;19918;-61
2022/09/13 01:13:20;;;;;;;;;;;;;;;;;;4925222;28;20294;-61
2022/09/13 01:15:45;;;;;;;;;;;;;;;;;;4919723;28;19919;-61
2022/09/13 01:18:10;;;;;;;;;;;;;;;;;;4919081;28;20009;-61
2022/09/13 01:20:36;;;;;;;;;;;;;;;;;;4927576;28;20597;-61
2022/09/13 01:23:01;;;;;;;;;;;;;;;;;;4923224;28;19922;-61
2022/09/13 01:25:27;;;;;;;;;;;;;;;;;;4925504;28;19922;-61
2022/09/13 01:27:54;;;;;;;;;;;;;;;;;;4926046;28;19918;-61
2022/09/13 01:30:20;;;;;;;;;;;;;;;;;;4910198;28;20409;-61
2022/09/13 01:32:45;;;;;;;;;;;;;;;;;;4932183;28;19922;-61
2022/09/13 01:35:10;;;;;;;;;;;;;;;;;;4927934;28;20020;-60
2022/09/13 01:37:39;;;;;;;;;;;;;;;;;;4927378;28;20164;-61
2022/09/13 01:40:04;;;;;;;;;;;;;;;;;;4930046;28;19923;-61
2022/09/13 01:42:32;;;;;;;;;;;;;;;;;;4927941;28;19930;-61
2022/09/13 01:44:57;;;;;;;;;;;;;;;;;;4928070;28;19922;-61
2022/09/13 01:47:25;;;;;;;;;;;;;;;;;;4926853;28;19981;-60
2022/09/13 01:49:50;;;;;;;;;;;;;;;;;;4906981;28;20025;-60
2022/09/13 01:52:15;;;;;;;;;;;;;;;;;;4923780;28;19966;-61
2022/09/13 01:54:40;;;;;;;;;;;;;;;;;;4926410;28;20562;-60
2022/09/13 01:57:06;;;;;;;;;;;;;;;;;;4926865;28;19922;-60
2022/09/13 01:59:31;;;;;;;;;;;;;;;;;;4926643;28;19922;-60
2022/09/13 02:01:59;;;;;;;;;;;;;;;;;;4908377;28;19926;-60
2022/09/13 02:04:27;;;;;;;;;;;;;;;;;;4935331;28;19969;-60
2022/09/13 02:06:54;;;;;;;;;;;;;;;;;;4924708;28;19923;-60
2022/09/13 02:09:19;;;;;;;;;;;;;;;;;;4922133;28;19988;-60
2022/09/13 02:11:44;;;;;;;;;;;;;;;;;;4921358;28;20321;-60
2022/09/13 02:14:15;;;;;;;;;;;;;;;;;;4918289;28;19922;-60
2022/09/13 02:16:42;;;;;;;;;;;;;;;;;;4924807;28;19919;-61
2022/09/13 02:19:07;;;;;;;;;;;;;;;;;;4907251;28;19930;-61
2022/09/13 02:21:33;;;;;;;;;;;;;;;;;;4929015;28;20398;-61
2022/09/13 02:24:01;;;;;;;;;;;;;;;;;;4921782;28;19961;-61
2022/09/13 02:26:26;;;;;;;;;;;;;;;;;;4922242;28;20119;-61
2022/09/13 02:28:54;;;;;;;;;;;;;;;;;;4929674;28;19940;-62
2022/09/13 02:31:20;;;;;;;;;;;;;;;;;;4919676;28;19980;-60
2022/09/13 02:33:48;;;;;;;;;;;;;;;;;;4922192;28;19922;-60
2022/09/13 02:36:16;;;;;;;;;;;;;;;;;;4926429;28;19918;-61
2022/09/13 02:38:43;;;;;;;;;;;;;;;;;;4923472;28;20589;-60
2022/09/13 02:41:11;;;;;;;;;;;;;;;;;;4925232;28;19923;-60
2022/09/13 02:43:36;;;;;;;;;;;;;;;;;;4928196;28;19941;-59
2022/09/13 02:46:04;;;;;;;;;;;;;;;;;;4922471;28;20009;-61
2022/09/13 02:48:32;;;;;;;;;;;;;;;;;;4925238;28;20247;-60
2022/09/13 02:51:00;;;;;;;;;;;;;;;;;;4909279;29;19922;-60
2022/09/13 02:53:25;;;;;;;;;;;;;;;;;;4915993;28;19922;-59
2022/09/13 02:55:54;;;;;;;;;;;;;;;;;;4924502;28;19922;-62
2022/09/13 02:58:19;;;;;;;;;;;;;;;;;;4925903;28;19930;-61
2022/09/13 03:00:46;;;;;;;;;;;;;;;;;;4925279;28;20203;-60
2022/09/13 03:03:11;;;;;;;;;;;;;;;;;;4902647;28;20768;-62
2022/09/13 03:05:39;;;;;;;;;;;;;;;;;;4919409;28;19938;-60
2022/09/13 03:08:04;;;;;;;;;;;;;;;;;;4910157;28;20307;-59
2022/09/13 03:10:32;;;;;;;;;;;;;;;;;;4927474;28;19923;-59
2022/09/13 03:12:57;;;;;;;;;;;;;;;;;;4926311;28;20073;-59
2022/09/13 03:15:25;;;;;;;;;;;;;;;;;;4934389;28;20378;-59
2022/09/13 03:17:50;;;;;;;;;;;;;;;;;;4921263;28;19918;-60
2022/09/13 03:20:18;;;;;;;;;;;;;;;;;;4922680;28;20358;-60
2022/09/13 03:22:43;;;;;;;;;;;;;;;;;;4913998;28;19954;-60
2022/09/13 03:25:08;;;;;;;;;;;;;;;;;;4923387;28;19973;-60
2022/09/13 03:27:33;;;;;;;;;;;;;;;;;;4937884;28;19923;-59
2022/09/13 03:30:02;;;;;;;;;;;;;;;;;;4920446;28;19922;-60
2022/09/13 03:32:27;;;;;;;;;;;;;;;;;;4928129;28;19932;-61
2022/09/13 03:34:52;;;;;;;;;;;;;;;;;;4922058;28;19923;-59
2022/09/13 03:37:20;;;;;;;;;;;;;;;;;;4923116;28;20069;-61
2022/09/13 03:39:45;;;;;;;;;;;;;;;;;;4921190;28;19925;-60
2022/09/13 03:42:13;;;;;;;;;;;;;;;;;;4935856;28;19927;-60
2022/09/13 03:44:41;;;;;;;;;;;;;;;;;;4920450;28;21497;-61
2022/09/13 03:47:08;;;;;;;;;;;;;;;;;;4943364;28;19933;-60
2022/09/13 03:49:34;;;;;;;;;;;;;;;;;;4928807;28;19918;-60
2022/09/13 03:51:59;;;;;;;;;;;;;;;;;;4927114;28;19922;-59
2022/09/13 03:54:31;;;;;;;;;;;;;;;;;;4932372;28;19926;-60
2022/09/13 03:56:56;;;;;;;;;;;;;;;;;;4940339;28;19922;-59
2022/09/13 03:59:21;;;;;;;;;;;;;;;;;;4928146;28;20036;-60
2022/09/13 04:01:50;;;;;;;;;;;;;;;;;;4904344;29;19919;-60
2022/09/13 04:04:16;;;;;;;;;;;;;;;;;;4924792;28;19923;-60
2022/09/13 04:06:44;;;;;;;;;;;;;;;;;;4925455;28;19946;-61
2022/09/13 04:09:11;;;;;;;;;;;;;;;;;;4923044;28;20110;-60
2022/09/13 04:11:42;;;;;;;;;;;;;;;;;;4922217;28;19957;-59
2022/09/13 04:14:07;;;;;;;;;;;;;;;;;;4921997;28;20378;-60
2022/09/13 04:16:36;;;;;;;;;;;;;;;;;;4937905;28;21601;-60
2022/09/13 04:19:06;;;;;;;;;;;;;;;;;;4923165;28;19927;-59
2022/09/13 04:21:31;;;;;;;;;;;;;;;;;;4922030;28;20366;-59
2022/09/13 04:23:56;;;;;;;;;;;;;;;;;;4906527;29;19926;-59
2022/09/13 04:26:22;;;;;;;;;;;;;;;;;;4920164;28;19984;-59
2022/09/13 04:28:50;;;;;;;;;;;;;;;;;;4928513;28;19973;-60
2022/09/13 04:31:20;;;;;;;;;;;;;;;;;;4926823;28;19922;-59
2022/09/13 04:33:46;;;;;;;;;;;;;;;;;;4917844;28;19950;-59
2022/09/13 04:36:11;;;;;;;;;;;;;;;;;;4925357;28;20397;-59
2022/09/13 04:38:39;;;;;;;;;;;;;;;;;;4922441;28;20642;-59
2022/09/13 04:41:09;;;;;;;;;;;;;;;;;;4921921;28;20403;-59
2022/09/13 04:43:34;;;;;;;;;;;;;;;;;;4919599;28;19927;-59
2022/09/13 04:46:02;;;;;;;;;;;;;;;;;;4920920;28;19918;-59
2022/09/13 04:48:28;;;;;;;;;;;;;;;;;;4914785;28;19933;-59
2022/09/13 04:50:56;;;;;;;;;;;;;;;;;;4918807;28;20151;-60
2022/09/13 04:53:24;;;;;;;;;;;;;;;;;;4918918;28;19918;-59
2022/09/13 04:55:52;;;;;;;;;;;;;;;;;;4924468;28;19919;-60
2022/09/13 04:58:20;;;;;;;;;;;;;;;;;;4924943;28;20099;-60
2022/09/13 05:00:50;;;;;;;;;;;;;;;;;;4926375;28;19923;-60
2022/09/13 05:03:15;;;;;;;;;;;;;;;;;;4927940;28;19927;-60
2022/09/13 05:05:46;;;;;;;;;;;;;;;;;;4923675;28;19918;-60
2022/09/13 05:08:11;;;;;;;;;;;;;;;;;;4908900;29;19918;-59
2022/09/13 05:10:39;;;;;;;;;;;;;;;;;;4927034;28;19922;-59
2022/09/13 05:13:07;;;;;;;;;;;;;;;;;;4925520;28;19997;-59
2022/09/13 05:15:34;;;;;;;;;;;;;;;;;;4922702;28;19922;-60
2022/09/13 05:18:00;;;;;;;;;;;;;;;;;;4925685;28;19922;-60
2022/09/13 05:20:30;;;;;;;;;;;;;;;;;;4926002;28;20017;-59
2022/09/13 05:22:58;;;;;;;;;;;;;;;;;;4922455;28;19926;-60
2022/09/13 05:25:26;;;;;;;;;;;;;;;;;;4921531;28;19934;-59
2022/09/13 05:27:54;;;;;;;;;;;;;;;;;;4923760;28;22026;-59
2022/09/13 05:30:21;;;;;;;;;;;;;;;;;;4909537;29;20733;-59
2022/09/13 05:32:49;;;;;;;;;;;;;;;;;;4927076;28;19965;-59
2022/09/13 05:35:14;;;;;;;;;;;;;;;;;;4929616;28;20038;-59
2022/09/13 05:37:42;;;;;;;;;;;;;;;;;;4922553;28;20358;-59
2022/09/13 05:40:07;;;;;;;;;;;;;;;;;;4912086;28;19919;-59
2022/09/13 05:42:35;;;;;;;;;;;;;;;;;;4941803;28;19923;-59
2022/09/13 05:45:05;;;;;;;;;;;;;;;;;;4926347;28;20747;-60
2022/09/13 05:47:30;;;;;;;;;;;;;;;;;;4928954;28;19918;-59
2022/09/13 05:49:55;;;;;;;;;;;;;;;;;;4923277;28;19988;-60
2022/09/13 05:52:21;;;;;;;;;;;;;;;;;;4925725;28;20556;-59
2022/09/13 05:54:46;;;;;;;;;;;;;;;;;;4927429;28;19929;-60
2022/09/13 05:57:11;;;;;;;;;;;;;;;;;;4913203;29;19926;-60
2022/09/13 05:59:36;;;;;;;;;;;;;;;;;;4938728;28;19931;-59
2022/09/13 06:02:03;;;;;;;;;;;;;;;;;;4923879;28;19925;-60
2022/09/13 06:04:28;;;;;;;;;;;;;;;;;;4925413;28;19923;-60
2022/09/13 06:06:53;;;;;;;;;;;;;;;;;;4930080;28;19918;-60
2022/09/13 06:09:21;;;;;;;;;;;;;;;;;;4925937;28;20013;-60
2022/09/13 06:11:46;;;;;;;;;;;;;;;;;;4941451;28;21919;-60
2022/09/13 06:14:14;;;;;;;;;;;;;;;;;;4926520;28;20605;-60
2022/09/13 06:16:39;;;;;;;;;;;;;;;;;;4929852;28;20199;-60
2022/09/13 06:19:07;;;;;;;;;;;;;;;;;;4940679;28;19946;-61
2022/09/13 06:21:33;;;;;;;;;;;;;;;;;;4926948;28;19958;-60
2022/09/13 06:24:01;;;;;;;;;;;;;;;;;;4914665;28;20209;-60
2022/09/13 06:26:26;;;;;;;;;;;;;;;;;;4926745;28;19922;-60
2022/09/13 06:28:57;;;;;;;;;;;;;;;;;;4908722;29;19923;-59
2022/09/13 06:31:38;;;;;;;;;;;;;;;;;;4927438;28;19923;-59
2022/09/13 06:34:16;;;;;;;;;;;;;;;;;;4924542;28;19961;-60
2022/09/13 06:36:44;;;;;;;;;;;;;;;;;;4926378;28;20171;-60
2022/09/13 06:42:25;;;;;;;;;;;;;;;;;;4929104;28;20053;-59
2022/09/13 06:44:51;;;;;;;;;;;;;;;;;;4930051;28;19923;-60
2022/09/13 06:47:18;;;;;;;;;;;;;;;;;;4930527;28;20413;-60
2022/09/13 06:49:44;;;;;;;;;;;;;;;;;;4928235;28;20005;-60
2022/09/13 06:52:12;;;;;;;;;;;;;;;;;;4927466;28;19965;-60
2022/09/13 06:57:53;;;;;;;;;;;;;;;;;;4926048;28;20378;-61
2022/09/13 07:00:19;;;;;;;;;;;;;;;;;;4931777;28;19922;-60
2022/09/13 07:02:46;;;;;;;;;;;;;;;;;;4926905;28;19926;-60
2022/09/13 07:05:16;;;;;;;;;;;;;;;;;;4940467;28;19930;-60
2022/09/13 07:07:41;;;;;;;;;;;;;;;;;;4927240;28;19926;-60
2022/09/13 07:10:07;;;;;;;;;;;;;;;;;;4927767;28;19922;-61
2022/09/13 07:12:32;;;;;;;;;;;;;;;;;;4923701;28;20382;-59
2022/09/13 07:14:57;;;;;;;;;;;;;;;;;;4922706;28;19923;-59
2022/09/13 07:17:37;;;;;;;;;;;;;;;;;;4924757;28;19927;-59
2022/09/13 07:20:05;;;;;;;;;;;;;;;;;;4918023;28;19922;-60
2022/09/13 07:22:30;;;;;;;;;;;;;;;;;;4925597;28;20540;-60
2022/09/13 07:24:59;;;;;;;;;;;;;;;;;;4923382;28;19922;-60
2022/09/13 07:27:25;;;;;;;;;;;;;;;;;;4919573;28;20064;-60
2022/09/13 07:29:50;;;;;;;;;;;;;;;;;;4917731;28;19926;-61
2022/09/13 07:32:15;;;;;;;;;;;;;;;;;;4924227;28;20005;-61
2022/09/13 07:34:40;;;;;;;;;;;;;;;;;;4921394;28;19923;-61
2022/09/13 07:37:06;;;;;;;;;;;;;;;;;;4926041;28;19989;-62
2022/09/13 07:39:33;;;;;;;;;;;;;;;;;;4905917;28;19981;-63
2022/09/13 07:41:59;;;;;;;;;;;;;;;;;;4923275;28;19929;-62
2022/09/13 07:44:27;;;;;;;;;;;;;;;;;;4923911;28;20069;-62
2022/09/13 07:46:52;;;;;;;;;;;;;;;;;;4926372;28;19919;-63
2022/09/13 07:55:31;;;;;;;;;;;;;;;;;;4918061;28;20385;-62
2022/09/13 08:01:13;;;;;;;;;;;;;;;;;;4921775;28;20086;-64
2022/09/13 08:03:41;;;;;;;;;;;;;;;;;;4924019;28;19926;-65
2022/09/13 08:06:07;;;;;;;;;;;;;;;;;;4905488;29;19922;-63
2022/09/13 08:08:32;;;;;;;;;;;;;;;;;;4922747;28;19918;-64
2022/09/13 08:10:57;;;;;;;;;;;;;;;;;;4904710;28;19930;-64
2022/09/13 08:13:38;;;;;;;;;;;;;;;;;;4914309;28;19930;-64
2022/09/13 08:16:05;;;;;;;;;;;;;;;;;;4915382;28;20848;-64
2022/09/13 08:18:31;;;;;;;;;;;;;;;;;;4902475;28;20203;-65
2022/09/13 08:20:57;;;;;;;;;;;;;;;;;;4925196;28;19918;-64
2022/09/13 08:23:25;;;;;;;;;;;;;;;;;;4919783;28;19926;-65
2022/09/13 08:25:50;;;;;;;;;;;;;;;;;;4925173;28;19957;-64
2022/09/13 08:28:20;;;;;;;;;;;;;;;;;;4905171;28;19922;-65
2022/09/13 08:30:48;;;;;;;;;;;;;;;;;;4902136;28;20435;-63
2022/09/13 08:33:14;;;;;;;;;;;;;;;;;;4908944;28;20637;-64
2022/09/13 08:35:39;;;;;;;;;;;;;;;;;;4924582;28;19992;-64
2022/09/13 08:38:04;;;;;;;;;;;;;;;;;;4918237;28;20017;-64
2022/09/13 08:40:30;;;;;;;;;;;;;;;;;;4922248;28;20329;-62
2022/09/13 08:42:58;;;;;;;;;;;;;;;;;;4933279;28;19924;-64
2022/09/13 08:45:24;;;;;;;;;;;;;;;;;;4922794;28;19919;-65
2022/09/13 08:47:49;;;;;;;;;;;;;;;;;;4905269;28;19922;-65
2022/09/13 08:50:17;;;;;;;;;;;;;;;;;;4924304;28;19976;-64
2022/09/13 08:52:44;;;;;;;;;;;;;;;;;;4936198;28;19926;-63
2022/09/13 08:55:13;;;;;;;;;;;;;;;;;;4917518;28;20820;-63
2022/09/13 08:57:40;;;;;;;;;;;;;;;;;;4920736;28;19946;-62
2022/09/13 09:00:06;;;;;;;;;;;;;;;;;;4918491;28;19930;-63
2022/09/13 09:02:35;;;;;;;;;;;;;;;;;;4922787;28;20004;-62
2022/09/13 09:05:02;;;;;;;;;;;;;;;;;;4903988;28;19922;-63
2022/09/13 09:07:30;;;;;;;;;;;;;;;;;;4919170;28;19922;-62
2022/09/13 09:09:56;;;;;;;;;;;;;;;;;;4898820;28;19930;-66
2022/09/13 09:12:21;;;;;;;;;;;;;;;;;;4922423;28;19930;-64
2022/09/13 09:14:51;;;;;;;;;;;;;;;;;;4923449;28;20002;-63
2022/09/13 09:17:17;;;;;;;;;;;;;;;;;;4934047;28;19997;-63
2022/09/13 09:19:42;;;;;;;;;;;;;;;;;;4919639;28;19946;-62
2022/09/13 09:22:10;;;;;;;;;;;;;;;;;;4926628;28;20396;-62
2022/09/13 09:24:38;;;;;;;;;;;;;;;;;;4920042;28;19926;-63
2022/09/13 09:27:03;;;;;;;;;;;;;;;;;;4921543;28;19966;-64
2022/09/13 09:29:28;;;;;;;;;;;;;;;;;;4908563;28;20259;-63
2022/09/13 09:31:58;;;;;;;;;;;;;;;;;;4923721;28;19926;-62
2022/09/13 09:34:23;;;;;;;;;;;;;;;;;;4923160;28;19922;-63
2022/09/13 09:36:48;;;;;;;;;;;;;;;;;;4923988;28;19927;-63
2022/09/13 09:39:15;;;;;;;;;;;;;;;;;;4928441;28;20002;-61
2022/09/13 09:41:43;;;;;;;;;;;;;;;;;;4926887;28;19922;-63
2022/09/13 09:44:08;;;;;;;;;;;;;;;;;;4930623;28;19977;-61
2022/09/13 09:46:34;;;;;;;;;;;;;;;;;;4941889;28;20386;-64
2022/09/13 09:48:59;;;;;;;;;;;;;;;;;;4924137;28;19919;-65
2022/09/13 09:51:30;;;;;;;;;;;;;;;;;;4925403;28;19928;-63
2022/09/13 09:53:55;;;;;;;;;;;;;;;;;;4939696;28;19945;-62
2022/09/13 09:56:21;;;;;;;;;;;;;;;;;;4931407;28;20832;-60
2022/09/13 09:58:46;;;;;;;;;;;;;;;;;;4925416;28;19922;-61
2022/09/13 10:01:15;;;;;;;;;;;;;;;;;;4918959;28;20034;-61
2022/09/13 10:03:40;;;;;;;;;;;;;;;;;;4923927;28;19922;-62
2022/09/13 10:06:05;;;;;;;;;;;;;;;;;;4912199;28;19925;-62
2022/09/13 10:08:33;;;;;;;;;;;;;;;;;;4926522;28;19998;-61
2022/09/13 10:10:59;;;;;;;;;;;;;;;;;;4922074;28;19928;-62
2022/09/13 10:13:24;;;;;;;;;;;;;;;;;;4924500;28;19978;-62
2022/09/13 10:15:50;;;;;;;;;;;;;;;;;;4930935;28;19973;-62
2022/09/13 10:18:18;;;;;;;;;;;;;;;;;;4928674;28;19946;-63
2022/09/13 10:20:46;;;;;;;;;;;;;;;;;;4920919;28;19918;-63
2022/09/13 10:23:12;;;;;;;;;;;;;;;;;;4926703;28;20323;-62
2022/09/13 10:25:37;;;;;;;;;;;;;;;;;;4928273;28;19918;-64
2022/09/13 10:28:02;;;;;;;;;;;;;;;;;;4920914;28;19965;-64
2022/09/13 10:30:28;;;;;;;;;;;;;;;;;;4925971;28;19922;-63
2022/09/13 10:32:53;;;;;;;;;;;;;;;;;;4924787;28;20654;-61
2022/09/13 10:35:19;;;;;;;;;;;;;;;;;;4921450;28;19926;-61
2022/09/13 10:37:46;;;;;;;;;;;;;;;;;;4910566;28;19918;-62
2022/09/13 10:40:12;;;;;;;;;;;;;;;;;;4928673;28;19920;-62
2022/09/13 10:42:37;;;;;;;;;;;;;;;;;;4925906;28;19926;-61
2022/09/13 10:45:05;;;;;;;;;;;;;;;;;;4922062;28;19918;-61
2022/09/13 10:47:33;;;;;;;;;;;;;;;;;;4924149;28;19985;-61
2022/09/13 10:50:01;;;;;;;;;;;;;;;;;;4922080;28;19978;-61
2022/09/13 10:52:29;;;;;;;;;;;;;;;;;;4918136;28;19930;-60
2022/09/13 10:54:55;;;;;;;;;;;;;;;;;;4917663;28;19922;-61
2022/09/13 10:57:20;;;;;;;;;;;;;;;;;;4925512;28;19918;-61
2022/09/13 10:59:45;;;;;;;;;;;;;;;;;;4906875;28;20053;-64
2022/09/13 11:02:12;;;;;;;;;;;;;;;;;;4923726;28;19969;-61
2022/09/13 11:04:39;;;;;;;;;;;;;;;;;;4928017;28;20005;-61
2022/09/13 11:07:05;;;;;;;;;;;;;;;;;;4930424;28;19950;-61
2022/09/13 11:09:30;;;;;;;;;;;;;;;;;;4928970;28;20009;-61
2022/09/13 11:11:56;;;;;;;;;;;;;;;;;;4931744;28;19940;-61
2022/09/13 11:14:21;;;;;;;;;;;;;;;;;;4932083;28;19922;-62
2022/09/13 11:16:49;;;;;;;;;;;;;;;;;;4929887;28;19929;-61
2022/09/13 11:19:24;;;;;;;;;;;;;;;;;;4924385;28;19922;-63
2022/09/13 11:21:52;;;;;;;;;;;;;;;;;;4928494;28;20014;-62
2022/09/13 11:24:17;;;;;;;;;;;;;;;;;;4927148;28;19923;-61
2022/09/13 11:26:45;;;;;;;;;;;;;;;;;;4930548;28;20402;-62
2022/09/13 11:29:10;;;;;;;;;;;;;;;;;;4925589;28;19951;-62
2022/09/13 11:31:35;;;;;;;;;;;;;;;;;;4927253;28;19922;-61
2022/09/13 11:34:03;;;;;;;;;;;;;;;;;;4925904;28;19958;-61
2022/09/13 11:36:28;;;;;;;;;;;;;;;;;;4923198;28;19989;-62
2022/09/13 11:38:56;;;;;;;;;;;;;;;;;;4914391;28;20286;-62
2022/09/13 11:41:26;;;;;;;;;;;;;;;;;;4923186;28;19923;-62
2022/09/13 11:43:57;;;;;;;;;;;;;;;;;;4927028;28;20386;-61
2022/09/13 11:46:25;;;;;;;;;;;;;;;;;;4926086;28;19918;-61
2022/09/13 11:48:50;;;;;;;;;;;;;;;;;;4927000;28;19930;-62
2022/09/13 11:51:18;;;;;;;;;;;;;;;;;;4921876;28;19926;-61
2022/09/13 11:53:44;;;;;;;;;;;;;;;;;;4923151;28;19927;-62
2022/09/13 11:56:09;;;;;;;;;;;;;;;;;;4923151;28;21938;-61
2022/09/13 11:58:34;;;;;;;;;;;;;;;;;;4920167;28;19975;-61
2022/09/13 12:01:02;;;;;;;;;;;;;;;;;;4917417;28;19918;-64
2022/09/13 12:03:28;;;;;;;;;;;;;;;;;;4923752;28;19985;-61
2022/09/13 12:05:53;;;;;;;;;;;;;;;;;;4924412;28;20525;-61
2022/09/13 12:08:18;;;;;;;;;;;;;;;;;;4910269;28;19923;-62
2022/09/13 12:10:46;;;;;;;;;;;;;;;;;;4923227;28;19932;-61
2022/09/13 12:13:12;;;;;;;;;;;;;;;;;;4918957;28;19934;-62
2022/09/13 12:15:37;;;;;;;;;;;;;;;;;;4924108;28;19922;-62
2022/09/13 12:18:02;;;;;;;;;;;;;;;;;;4908490;29;19928;-64
2022/09/13 12:20:30;;;;;;;;;;;;;;;;;;4922030;28;19957;-61
2022/09/13 12:22:56;;;;;;;;;;;;;;;;;;4913172;28;19918;-60
2022/09/13 12:25:21;;;;;;;;;;;;;;;;;;4923221;28;20397;-62
2022/09/13 12:27:49;;;;;;;;;;;;;;;;;;4941783;28;20006;-62
2022/09/13 12:30:14;;;;;;;;;;;;;;;;;;4929867;28;20377;-61
2022/09/13 12:32:39;;;;;;;;;;;;;;;;;;4908364;28;20364;-60
2022/09/13 12:35:05;;;;;;;;;;;;;;;;;;4911764;29;19951;-60
2022/09/13 12:37:30;;;;;;;;;;;;;;;;;;4930210;28;20013;-61
2022/09/13 12:39:58;;;;;;;;;;;;;;;;;;4909467;28;20638;-62
2022/09/13 12:42:23;;;;;;;;;;;;;;;;;;4929115;28;19933;-61
2022/09/13 12:44:48;;;;;;;;;;;;;;;;;;4923323;28;19922;-61
2022/09/13 12:47:18;;;;;;;;;;;;;;;;;;4914741;28;19922;-61
2022/09/13 12:49:43;;;;;;;;;;;;;;;;;;4925173;28;19922;-61
2022/09/13 12:52:14;;;;;;;;;;;;;;;;;;4911214;28;19952;-61
2022/09/13 12:54:46;;;;;;;;;;;;;;;;;;4904409;28;19914;-63
2022/09/13 12:57:12;;;;;;;;;;;;;;;;;;4922502;28;20006;-61
2022/09/13 12:59:41;;;;;;;;;;;;;;;;;;4915229;28;20369;-62
2022/09/13 13:02:10;;;;;;;;;;;;;;;;;;4920728;28;19966;-60
2022/09/13 13:04:35;;;;;;;;;;;;;;;;;;4918055;28;20321;-61
2022/09/13 13:07:01;;;;;;;;;;;;;;;;;;4917222;28;20366;-62
2022/09/13 13:09:29;;;;;;;;;;;;;;;;;;4913323;28;19922;-61
2022/09/13 13:11:57;;;;;;;;;;;;;;;;;;4922898;28;19938;-62
2022/09/13 13:14:25;;;;;;;;;;;;;;;;;;4924261;28;19934;-60
2022/09/13 13:16:55;;;;;;;;;;;;;;;;;;4909451;28;20026;-61
2022/09/13 13:19:20;;;;;;;;;;;;;;;;;;4916931;28;20001;-60
2022/09/13 13:21:46;;;;;;;;;;;;;;;;;;4927686;28;19930;-61
2022/09/13 13:24:11;;;;;;;;;;;;;;;;;;4922330;28;19997;-61
2022/09/13 13:26:45;;;;;;;;;;;;;;;;;;4939820;28;20009;-60
2022/09/13 13:29:10;;;;;;;;;;;;;;;;;;4929988;28;22099;-61
2022/09/13 13:31:35;;;;;;;;;;;;;;;;;;4925584;28;19919;-61
2022/09/13 13:34:07;;;;;;;;;;;;;;;;;;4911609;28;19969;-61
2022/09/13 13:36:32;;;;;;;;;;;;;;;;;;4928095;28;19922;-61
2022/09/13 13:38:58;;;;;;;;;;;;;;;;;;4924495;28;19973;-61
2022/09/13 13:41:27;;;;;;;;;;;;;;;;;;4924646;28;19918;-62
2022/09/13 13:43:52;;;;;;;;;;;;;;;;;;4922437;28;22106;-61
2022/09/13 13:46:20;;;;;;;;;;;;;;;;;;4925316;28;20978;-61
2022/09/13 13:48:45;;;;;;;;;;;;;;;;;;4927717;28;19926;-63
2022/09/13 13:51:11;;;;;;;;;;;;;;;;;;4927883;28;20010;-62
2022/09/13 13:53:40;;;;;;;;;;;;;;;;;;4921749;28;20449;-61
2022/09/13 13:56:06;;;;;;;;;;;;;;;;;;4930137;28;20016;-60
2022/09/13 13:58:31;;;;;;;;;;;;;;;;;;4929293;28;19918;-61
2022/09/13 14:00:56;;;;;;;;;;;;;;;;;;4928844;28;20412;-61
2022/09/13 14:03:21;;;;;;;;;;;;;;;;;;4926960;28;19918;-61
2022/09/13 14:05:47;;;;;;;;;;;;;;;;;;4940618;28;19922;-61
2022/09/13 14:08:12;;;;;;;;;;;;;;;;;;4925792;28;19919;-61
2022/09/13 14:10:40;;;;;;;;;;;;;;;;;;4924219;28;20826;-60
2022/09/13 14:13:06;;;;;;;;;;;;;;;;;;4924482;28;19969;-60
2022/09/13 14:15:31;;;;;;;;;;;;;;;;;;4911171;28;19918;-62
2022/09/13 14:17:56;;;;;;;;;;;;;;;;;;4924275;28;19922;-61
2022/09/13 14:20:22;;;;;;;;;;;;;;;;;;4909542;28;20036;-61
2022/09/13 14:22:48;;;;;;;;;;;;;;;;;;4925083;28;20421;-60
2022/09/13 14:25:16;;;;;;;;;;;;;;;;;;4929757;28;20034;-60
2022/09/13 14:27:44;;;;;;;;;;;;;;;;;;4924570;28;20290;-60
2022/09/13 14:30:15;;;;;;;;;;;;;;;;;;4924252;28;20113;-61
2022/09/13 14:35:25;;;;;;;;;;;;;;;;;;4939620;28;19969;-62
2022/09/13 14:37:51;;;;;;;;;;;;;;;;;;4926187;28;19922;-60
2022/09/13 14:40:19;;;;;;;;;;;;;;;;;;4926597;28;19972;-61
2022/09/13 14:42:44;;;;;;;;;;;;;;;;;;4924779;28;20001;-60
2022/09/13 14:45:10;;;;;;;;;;;;;;;;;;4928879;28;19922;-62
2022/09/13 14:47:35;;;;;;;;;;;;;;;;;;4925883;28;19918;-61
2022/09/13 14:50:03;;;;;;;;;;;;;;;;;;4935367;28;20721;-61
2022/09/13 14:52:30;;;;;;;;;;;;;;;;;;4939184;28;20052;-62
2022/09/13 14:55:09;;;;;;;;;;;;;;;;;;4927471;28;19925;-61
2022/09/13 14:57:45;;;;;;;;;;;;;;;;;;4924497;28;20001;-61
2022/09/13 15:00:13;;;;;;;;;;;;;;;;;;4926444;28;21927;-61
2022/09/13 15:02:41;;;;;;;;;;;;;;;;;;4924946;28;19922;-61
2022/09/13 15:05:07;;;;;;;;;;;;;;;;;;4923237;28;20682;-62
2022/09/13 15:07:36;;;;;;;;;;;;;;;;;;4923067;28;19923;-61
2022/09/13 15:10:01;;;;;;;;;;;;;;;;;;4926333;28;19923;-63
2022/09/13 15:12:27;;;;;;;;;;;;;;;;;;4932214;28;20534;-61
2022/09/13 15:14:52;;;;;;;;;;;;;;;;;;4929114;28;19922;-62
2022/09/13 15:17:20;;;;;;;;;;;;;;;;;;4926912;28;20009;-61
2022/09/13 15:19:45;;;;;;;;;;;;;;;;;;4929551;28;19983;-58
2022/09/13 15:22:11;;;;;;;;;;;;;;;;;;4923429;28;19926;-60
2022/09/13 15:24:38;;;;;;;;;;;;;;;;;;4911074;28;20373;-62
2022/09/13 15:27:03;;;;;;;;;;;;;;;;;;4917210;28;19923;-61
2022/09/13 15:29:33;;;;;;;;;;;;;;;;;;4939318;28;20477;-61
2022/09/13 15:32:19;;;;;;;;;;;;;;;;;;4924664;28;19929;-61
2022/09/13 15:34:49;;;;;;;;;;;;;;;;;;4924606;28;19987;-61
2022/09/13 15:37:15;;;;;;;;;;;;;;;;;;4920310;28;20658;-61
2022/09/13 15:39:43;;;;;;;;;;;;;;;;;;4923467;28;20003;-61
2022/09/13 15:42:10;;;;;;;;;;;;;;;;;;4926177;28;19929;-62
2022/09/13 15:44:38;;;;;;;;;;;;;;;;;;4927915;28;20306;-61
2022/09/13 15:47:03;;;;;;;;;;;;;;;;;;4911413;28;19923;-61
2022/09/13 15:49:28;;;;;;;;;;;;;;;;;;4924816;28;19918;-62
2022/09/13 15:51:54;;;;;;;;;;;;;;;;;;4921836;28;19929;-61
2022/09/13 15:54:21;;;;;;;;;;;;;;;;;;4909250;28;19926;-61
2022/09/13 15:56:50;;;;;;;;;;;;;;;;;;4920929;28;20384;-61
2022/09/13 15:59:23;;;;;;;;;;;;;;;;;;4937110;28;20720;-61
2022/09/13 16:02:09;;;;;;;;;;;;;;;;;;4922923;28;21781;-60
2022/09/13 16:04:36;;;;;;;;;;;;;;;;;;4926181;28;19984;-61
2022/09/13 16:07:04;;;;;;;;;;;;;;;;;;4928431;28;19923;-61
2022/09/13 16:09:32;;;;;;;;;;;;;;;;;;4928435;28;19922;-61
2022/09/13 16:11:57;;;;;;;;;;;;;;;;;;4924536;28;19926;-61
2022/09/13 16:14:25;;;;;;;;;;;;;;;;;;4926264;28;19926;-61
2022/09/13 16:16:50;;;;;;;;;;;;;;;;;;4927062;28;19919;-60
2022/09/13 16:19:16;;;;;;;;;;;;;;;;;;4923915;28;20290;-61
2022/09/13 16:21:41;;;;;;;;;;;;;;;;;;4929547;28;21117;-61
2022/09/13 16:24:27;;;;;;;;;;;;;;;;;;4927248;28;20939;-61
2022/09/13 16:26:52;;;;;;;;;;;;;;;;;;4927006;28;20609;-63
2022/09/13 16:29:17;;;;;;;;;;;;;;;;;;4909808;29;19922;-62
2022/09/13 16:31:42;;;;;;;;;;;;;;;;;;4932257;28;19925;-62
2022/09/13 16:34:08;;;;;;;;;;;;;;;;;;4925627;28;20326;-61
2022/09/13 16:36:33;;;;;;;;;;;;;;;;;;4931289;28;19962;-62
2022/09/13 16:38:58;;;;;;;;;;;;;;;;;;4919875;28;20566;-62
2022/09/13 16:41:24;;;;;;;;;;;;;;;;;;4908040;29;20574;-63
2022/09/13 16:43:52;;;;;;;;;;;;;;;;;;4926845;28;20121;-61
2022/09/13 16:46:19;;;;;;;;;;;;;;;;;;4924451;28;19920;-60
2022/09/13 16:48:48;;;;;;;;;;;;;;;;;;4926937;28;20405;-61
2022/09/13 16:51:18;;;;;;;;;;;;;;;;;;4927159;28;19922;-62
2022/09/13 16:53:43;;;;;;;;;;;;;;;;;;4924286;28;20012;-61
2022/09/13 16:56:08;;;;;;;;;;;;;;;;;;4920102;28;20009;-61
2022/09/13 16:58:36;;;;;;;;;;;;;;;;;;4927946;28;19925;-61
2022/09/13 17:01:04;;;;;;;;;;;;;;;;;;4926329;28;19966;-61